EKYT

Aalborg Airport

Aalborg, Denmark
METAR EKYT 160520Z AUTO 00000KT 0750NDV R08L/P1500N R26R/P1500D -SHRA FG SCT070/// 09/08 Q1016
Observed Flight Rules
Oct-16 @ 05:20 UTC (24 minutes ago) Instrument Flight Rules
Visibility Clouds Conditions
1,497 meters
  • Scattered at 7,000' AGL
  • Light Rain
  • Fog
Temperatures Readings
Current 9°C / 48°F
Dewpoint 8°C / 46°F
Humidity 94%
Altimeter 30" Hg
Pressure 1016 hPa
Elevation 3
METAR EKYT 160520Z AUTO 00000KT 0750NDV R08L/P1500N R26R/P1500D -SHRA FG SCT070/// 09/08 Q1016
Observed Flight Rules
Oct-16 @ 05:20 UTC
(24 minutes ago)
LIFR
Clouds
  • Scattered at 7,000' AGL
Conditions
  • Light Rain
  • Fog
Temperature Dewpoint
9°C / 48°F 8°C / 46°F
Humidity Altimeter Pressure
94% 30" Hg 1016 hPa